createdAt,value
2017-07-20T00:01:11.122Z,28.52
2017-07-20T00:03:35.816Z,28.56
2017-07-20T00:06:00.487Z,28.38
2017-07-20T00:08:25.074Z,28.22
2017-07-20T00:10:49.726Z,28.23
2017-07-20T00:13:14.324Z,28.53
2017-07-20T00:15:39.075Z,28.71
2017-07-20T00:18:03.764Z,28.65
2017-07-20T00:20:19.964Z,28.87
2017-07-20T00:22:36.166Z,29.03
2017-07-20T00:24:52.359Z,28.93
2017-07-20T00:27:17.056Z,29.1
2017-07-20T00:29:10.116Z,29.03
2017-07-20T00:31:26.326Z,29.05
2017-07-20T00:33:51.103Z,29.12
2017-07-20T00:36:01.181Z,29.16
2017-07-20T00:38:25.881Z,29.25
2017-07-20T00:40:35.945Z,29.28
2017-07-20T00:42:52.187Z,29.12
2017-07-20T00:45:16.891Z,29.13
2017-07-20T00:47:41.582Z,29.02
2017-07-20T00:49:57.747Z,29
2017-07-20T00:52:22.371Z,28.96
2017-07-20T00:54:30.045Z,28.72
2017-07-20T00:56:46.213Z,28.74
2017-07-20T00:59:10.878Z,28.6
2017-07-20T01:01:35.529Z,28.78
2017-07-20T01:03:51.702Z,28.72
2017-07-20T01:06:07.966Z,28.83
2017-07-20T01:08:24.266Z,28.86
2017-07-20T01:10:40.566Z,29.03
2017-07-20T01:12:56.867Z,29.05
2017-07-20T01:15:13.169Z,29.07
2017-07-20T01:17:29.361Z,28.7
2017-07-20T01:19:54.160Z,28.71
2017-07-20T01:22:10.357Z,28.68
2017-07-20T01:24:18.159Z,28.65
2017-07-20T01:26:42.857Z,28.47
2017-07-20T01:28:59.057Z,28.43
2017-07-20T01:31:23.752Z,28.53
2017-07-20T01:33:48.548Z,28.6
2017-07-20T01:36:13.246Z,28.41
2017-07-20T01:38:37.940Z,28.25
2017-07-20T01:41:02.636Z,28.28
2017-07-20T01:43:18.938Z,28.27
2017-07-20T01:45:43.734Z,28.23
2017-07-20T01:48:08.434Z,28.37
2017-07-20T01:50:24.628Z,28.38
2017-07-20T01:52:49.426Z,28.27
2017-07-20T01:55:14.123Z,28.27
2017-07-20T01:57:38.834Z,28.23
2017-07-20T01:59:55.017Z,28.19
2017-07-20T02:02:19.715Z,28.16
2017-07-20T02:04:44.417Z,27.97
2017-07-20T02:07:09.106Z,28.04
2017-07-20T02:09:33.807Z,28.03
2017-07-20T02:11:58.502Z,27.9
2017-07-20T02:14:23.200Z,27.94
2017-07-20T02:16:39.410Z,28.04
2017-07-20T02:18:15.241Z,27.95
2017-07-20T02:20:39.876Z,27.9
2017-07-20T02:22:55.977Z,27.83
2017-07-20T02:25:20.546Z,27.85
2017-07-20T02:27:45.147Z,27.78
2017-07-20T02:30:09.713Z,27.53
2017-07-20T02:32:34.308Z,27.72
2017-07-20T02:34:58.904Z,27.78
2017-07-20T02:37:23.604Z,27.71
2017-07-20T02:39:31.298Z,27.81
2017-07-20T02:41:47.390Z,27.82
2017-07-20T02:44:11.988Z,27.64
2017-07-20T02:46:36.683Z,27.81
2017-07-20T02:49:01.378Z,27.72
2017-07-20T02:51:17.575Z,27.71
2017-07-20T02:53:33.673Z,27.55
2017-07-20T02:55:58.267Z,27.63
2017-07-20T02:58:14.462Z,27.55
2017-07-20T03:00:39.055Z,27.5
2017-07-20T03:02:55.258Z,27.34
2017-07-20T03:05:19.846Z,27.4
2017-07-20T03:07:44.455Z,27.23
2017-07-20T03:10:09.034Z,27.26
2017-07-20T03:12:33.632Z,27.34
2017-07-20T03:14:58.225Z,27.13
2017-07-20T03:17:22.816Z,27.13
2017-07-20T03:19:47.411Z,27.25
2017-07-20T03:22:03.609Z,27.43
2017-07-20T03:24:28.107Z,27.44
2017-07-20T03:26:52.693Z,27.41
2017-07-20T03:29:08.895Z,27.55
2017-07-20T03:31:33.490Z,27.4
2017-07-20T03:33:58.084Z,27.72
2017-07-20T03:36:22.777Z,27.67
2017-07-20T03:38:24.266Z,27.75
2017-07-20T03:40:48.859Z,27.61
2017-07-20T03:43:13.433Z,27.61
2017-07-20T03:45:37.947Z,27.48
2017-07-20T03:47:47.924Z,27.45
2017-07-20T03:50:12.513Z,27.41
2017-07-20T03:52:37.067Z,27.52
2017-07-20T03:55:01.630Z,27.66
2017-07-20T03:57:26.194Z,27.61
2017-07-20T03:59:42.328Z,27.67
2017-07-20T04:02:06.925Z,27.5
2017-07-20T04:04:31.518Z,27.55
2017-07-20T04:06:56.109Z,27.58
2017-07-20T04:09:12.206Z,27.53
2017-07-20T04:11:36.726Z,27.47
2017-07-20T04:14:01.294Z,27.64
2017-07-20T04:16:25.829Z,27.47
2017-07-20T04:18:50.477Z,27.48
2017-07-20T04:21:15.012Z,27.61
2017-07-20T04:23:16.497Z,27.76
2017-07-20T04:25:41.094Z,27.44
2017-07-20T04:28:05.599Z,27.3
2017-07-20T04:30:30.151Z,27.52
2017-07-20T04:32:54.804Z,27.53
2017-07-20T04:35:19.392Z,27.37
2017-07-20T04:37:43.986Z,27.4
2017-07-20T04:40:00.064Z,27.37
2017-07-20T04:42:24.676Z,27.41
2017-07-20T04:44:49.267Z,27.38
2017-07-20T04:47:13.865Z,27.4
2017-07-20T04:49:38.473Z,27.72
2017-07-20T04:52:02.994Z,27.71
2017-07-20T04:54:19.143Z,27.72
2017-07-20T04:56:43.741Z,27.71
2017-07-20T04:59:08.335Z,27.57
2017-07-20T05:01:24.434Z,27.66
2017-07-20T05:03:49.128Z,27.78
2017-07-20T05:06:13.820Z,27.44
2017-07-20T05:08:30.018Z,27.04
2017-07-20T05:10:46.112Z,27.44
2017-07-20T05:13:10.707Z,27.3
2017-07-20T05:15:35.302Z,27.57
2017-07-20T05:17:59.897Z,27.58
2017-07-20T05:20:24.478Z,27.78
2017-07-20T05:22:49.186Z,27.98
2017-07-20T05:25:13.883Z,28.19
2017-07-20T05:27:39.504Z,28.37
2017-07-20T05:29:55.692Z,28.23
2017-07-20T05:32:20.395Z,28.31
2017-07-20T05:34:36.506Z,28.72
2017-07-20T05:37:01.123Z,28.9
2017-07-20T05:39:25.883Z,29.31
2017-07-20T05:41:50.578Z,29.71
2017-07-20T05:44:15.387Z,30.05
2017-07-20T05:46:31.677Z,33.09
2017-07-20T05:48:56.580Z,38.48
2017-07-20T05:51:06.787Z,38.22
2017-07-20T05:53:32.099Z,36
2017-07-20T05:55:57.413Z,34.82
2017-07-20T05:58:22.744Z,36.5
2017-07-20T06:00:48.181Z,37.44
2017-07-20T06:02:56.570Z,36.06
2017-07-20T06:05:22.112Z,35.22
2017-07-20T06:07:39.132Z,35.56
2017-07-20T06:09:56.145Z,35.23
2017-07-20T06:12:21.513Z,34.96
2017-07-20T06:14:46.934Z,35.68
2017-07-20T06:17:03.783Z,36.55
2017-07-20T06:19:29.196Z,35.12
2017-07-20T06:21:40.024Z,34.51
2017-07-20T06:23:41.701Z,34.22
2017-07-20T06:26:07.070Z,33.85
2017-07-20T06:28:32.341Z,33.6
2017-07-20T06:30:57.564Z,32.82
2017-07-20T06:33:22.870Z,34.55
2017-07-20T06:35:48.182Z,36.65
2017-07-20T06:38:13.586Z,36.44
2017-07-20T06:40:38.958Z,37.54
2017-07-20T06:43:04.408Z,41.96
2017-07-20T06:45:21.532Z,43.89
2017-07-20T06:47:47.335Z,43.46
2017-07-20T06:50:13.278Z,44.79
2017-07-20T06:52:39.346Z,41.84
2017-07-20T06:55:05.631Z,40.07
2017-07-20T06:57:23.346Z,40.98
2017-07-20T06:59:41.209Z,42.73
2017-07-20T07:02:07.818Z,44.16
2017-07-20T07:04:10.350Z,45.28
2017-07-20T07:06:37.190Z,44.3
2017-07-20T07:09:04.015Z,43.62
2017-07-20T07:11:13.665Z,40.88
2017-07-20T07:13:31.695Z,39.14
2017-07-20T07:15:58.145Z,37.63
2017-07-20T07:18:24.387Z,35.61
2017-07-20T07:20:50.453Z,34.29
2017-07-20T07:23:16.332Z,33.72
2017-07-20T07:25:42.033Z,33.2
2017-07-20T07:27:59.179Z,33.36
2017-07-20T07:30:24.680Z,33
2017-07-20T07:32:26.920Z,33.09
2017-07-20T07:34:52.265Z,32.83
2017-07-20T07:37:17.573Z,33.44
2017-07-20T07:39:42.852Z,34.28
2017-07-20T07:42:08.100Z,33.84
2017-07-20T07:44:33.385Z,34.86
2017-07-20T07:46:58.688Z,36
2017-07-20T07:49:15.534Z,36.55
2017-07-20T07:51:42.088Z,35.35
2017-07-20T07:54:07.584Z,34.14
2017-07-20T07:56:32.973Z,34.02
2017-07-20T07:58:09.634Z,33.28
2017-07-20T08:00:35.044Z,33.19
2017-07-20T08:02:51.814Z,33.33
2017-07-20T08:05:17.057Z,32.63
2017-07-20T08:07:25.282Z,32.15
2017-07-20T08:09:50.474Z,32.01
2017-07-20T08:12:17.183Z,31.55
2017-07-20T08:14:42.269Z,31.23
2017-07-20T08:17:07.376Z,30.65
2017-07-20T08:19:23.879Z,30.49
2017-07-20T08:21:36.574Z,30.7
2017-07-20T08:24:01.570Z,30.32
2017-07-20T08:26:26.519Z,29.67
2017-07-20T08:28:51.395Z,29.59
2017-07-20T08:31:16.407Z,29.62
2017-07-20T08:33:41.309Z,29.02
2017-07-20T08:36:06.213Z,28.74
2017-07-20T08:38:31.106Z,28.9
2017-07-20T08:40:47.433Z,28.57
2017-07-20T08:43:12.150Z,28.62
2017-07-20T08:45:36.901Z,27.93
2017-07-20T08:48:01.626Z,27.44
2017-07-20T08:50:27.247Z,27.5
2017-07-20T08:52:51.002Z,27.22
2017-07-20T08:55:15.627Z,27.43
2017-07-20T08:57:40.196Z,27
2017-07-20T09:00:04.832Z,26.92
2017-07-20T09:02:29.465Z,27.26
2017-07-20T09:04:05.265Z,27.34
2017-07-20T09:06:15.431Z,26.92
2017-07-20T09:08:40.073Z,26.76
2017-07-20T09:11:04.669Z,26.98
2017-07-20T09:13:29.270Z,26.53
2017-07-20T09:15:53.858Z,26.71
2017-07-20T09:18:18.396Z,26.52
2017-07-20T09:19:54.749Z,26.67
2017-07-20T09:22:19.371Z,26.29
2017-07-20T09:24:43.922Z,25.68
2017-07-20T09:27:08.466Z,25.86
2017-07-20T09:29:24.510Z,25.31
2017-07-20T09:31:49.026Z,25.24
2017-07-20T09:34:13.491Z,25.7
2017-07-20T09:36:37.994Z,25.3
2017-07-20T09:39:02.473Z,25.4
2017-07-20T09:41:26.931Z,25.67
2017-07-20T09:43:42.946Z,25.83
2017-07-20T09:45:18.785Z,26.23
2017-07-20T09:47:43.286Z,26.1
2017-07-20T09:49:59.264Z,26.33
2017-07-20T09:52:23.705Z,26.49
2017-07-20T09:54:48.162Z,26.52
2017-07-20T09:57:12.614Z,26.86
2017-07-20T09:59:37.111Z,27.11
2017-07-20T10:02:01.601Z,27.22
2017-07-20T10:04:26.105Z,27.22
2017-07-20T10:06:50.660Z,27.48
2017-07-20T10:09:06.751Z,27.45
2017-07-20T10:11:23.925Z,27.71
2017-07-20T10:13:48.499Z,27.86
2017-07-20T10:16:13.106Z,27.94
2017-07-20T10:18:37.702Z,28.22
2017-07-20T10:20:39.728Z,27.94
2017-07-20T10:23:04.402Z,27.91
2017-07-20T10:25:20.509Z,28.38
2017-07-20T10:27:31.122Z,28.53
2017-07-20T10:29:47.278Z,28.56
2017-07-20T10:31:49.289Z,28.31
2017-07-20T10:34:13.893Z,28.4
2017-07-20T10:36:38.544Z,29.05
2017-07-20T10:39:03.137Z,29.59
2017-07-20T10:41:27.796Z,29.73
2017-07-20T10:43:44.011Z,29.74
2017-07-20T10:46:08.866Z,29.25
2017-07-20T10:47:45.206Z,29.61
2017-07-20T10:49:48.036Z,30.02
2017-07-20T10:52:12.835Z,30.14
2017-07-20T10:54:23.472Z,30.24
2017-07-20T10:56:48.218Z,29.94
2017-07-20T10:59:13.030Z,29.28
2017-07-20T11:01:37.741Z,28.84
2017-07-20T11:04:02.564Z,28.57
2017-07-20T11:06:27.259Z,27.82
2017-07-20T11:08:51.962Z,27.82
2017-07-20T11:11:16.653Z,27.58
2017-07-20T11:13:32.840Z,27.78
2017-07-20T11:15:57.548Z,27.83
2017-07-20T11:18:22.192Z,28.2
2017-07-20T11:19:58.549Z,28.52
2017-07-20T11:22:23.228Z,29.16
2017-07-20T11:24:24.732Z,29.35
2017-07-20T11:26:26.759Z,29.07
2017-07-20T11:28:51.536Z,29.31
2017-07-20T11:31:16.281Z,30.29
2017-07-20T11:33:41.034Z,30.58
2017-07-20T11:36:05.836Z,30.2
2017-07-20T11:38:30.635Z,29.77
2017-07-20T11:40:55.446Z,29.71
2017-07-20T11:43:20.274Z,29.57
2017-07-20T11:45:45.127Z,29.5
2017-07-20T11:48:01.476Z,29.86
2017-07-20T11:50:17.861Z,29.92
2017-07-20T11:52:42.699Z,29.84
2017-07-20T11:55:07.498Z,29.89
2017-07-20T11:57:32.317Z,30.59
2017-07-20T11:59:34.371Z,30.73
2017-07-20T12:01:59.273Z,30.81
2017-07-20T12:04:24.177Z,31.14
2017-07-20T12:06:40.606Z,31.26
2017-07-20T12:09:05.475Z,30.78
2017-07-20T12:11:30.444Z,31.1
2017-07-20T12:13:55.346Z,30.36
2017-07-20T12:16:20.234Z,30.27
2017-07-20T12:18:36.691Z,30.96
2017-07-20T12:21:01.557Z,31.26
2017-07-20T12:23:26.407Z,31
2017-07-20T12:25:42.835Z,30.49
2017-07-20T12:27:59.216Z,30.81
2017-07-20T12:30:24.159Z,29.65
2017-07-20T12:32:49.017Z,30.13
2017-07-20T12:35:13.844Z,30.32
2017-07-20T12:37:38.711Z,30.27
2017-07-20T12:40:03.565Z,30.32
2017-07-20T12:42:19.944Z,30.52
2017-07-20T12:44:36.331Z,30.69
2017-07-20T12:47:01.198Z,30.96
2017-07-20T12:49:26.077Z,30.1
2017-07-20T12:51:50.955Z,30.46
2017-07-20T12:54:15.861Z,30.43
2017-07-20T12:56:26.507Z,30.71
2017-07-20T12:58:51.418Z,30.14
2017-07-20T13:01:16.288Z,30.26
2017-07-20T13:03:32.630Z,30.24
2017-07-20T13:05:57.489Z,30.46
2017-07-20T13:08:22.345Z,30.78
2017-07-20T13:10:38.753Z,31.05
2017-07-20T13:13:03.584Z,31.32
2017-07-20T13:15:28.479Z,31.3
2017-07-20T13:17:30.549Z,30.8
2017-07-20T13:19:40.716Z,30.67
2017-07-20T13:21:57.149Z,30.4
2017-07-20T13:24:21.975Z,30.7
2017-07-20T13:26:46.856Z,30.29
2017-07-20T13:29:11.706Z,30.24
2017-07-20T13:31:36.543Z,30.06
2017-07-20T13:33:38.104Z,29.92
2017-07-20T13:35:46.036Z,30.54
2017-07-20T13:38:10.820Z,30.33
2017-07-20T13:40:35.676Z,30.65
2017-07-20T13:43:00.482Z,30.89
2017-07-20T13:45:25.328Z,30.51
2017-07-20T13:47:50.178Z,30.67
2017-07-20T13:50:06.576Z,30.71
2017-07-20T13:52:31.387Z,31.04
2017-07-20T13:54:56.239Z,31.29
2017-07-20T13:57:21.105Z,31.2
2017-07-20T13:59:46.020Z,31.72
2017-07-20T14:02:11.055Z,32.04
2017-07-20T14:04:35.946Z,31.77
2017-07-20T14:06:52.388Z,31.55
2017-07-20T14:09:17.356Z,31.98
2017-07-20T14:11:42.368Z,32.04
2017-07-20T14:13:58.868Z,31.59
2017-07-20T14:16:23.987Z,31.52
2017-07-20T14:18:48.940Z,32.05
2017-07-20T14:21:13.983Z,32.48
2017-07-20T14:23:21.988Z,32.51
2017-07-20T14:25:46.907Z,32.04
2017-07-20T14:27:57.120Z,30.98
2017-07-20T14:30:13.632Z,30.86
2017-07-20T14:32:38.563Z,30.08
2017-07-20T14:35:03.426Z,29.52
2017-07-20T14:37:28.241Z,28.45
2017-07-20T14:39:53.019Z,27.73
2017-07-20T14:42:17.757Z,27.18
2017-07-20T14:44:42.488Z,26.39
2017-07-20T14:46:58.669Z,25.34
2017-07-20T14:49:23.352Z,25.33
2017-07-20T14:51:47.931Z,25.4
2017-07-20T14:54:12.436Z,24.71
2017-07-20T14:56:36.913Z,24.84
2017-07-20T14:59:01.519Z,24.89
2017-07-20T15:01:26.005Z,25.15
2017-07-20T15:03:42.089Z,25.31
2017-07-20T15:05:58.195Z,25.58
2017-07-20T15:08:22.680Z,25.29
2017-07-20T15:10:47.172Z,25.55
2017-07-20T15:13:11.594Z,25.26
2017-07-20T15:15:36.013Z,26.06
2017-07-20T15:18:00.444Z,26.06
2017-07-20T15:20:25.039Z,26.52
2017-07-20T15:22:49.472Z,26.88
2017-07-20T15:25:05.500Z,27
2017-07-20T15:27:30.147Z,27.25
2017-07-20T15:29:54.720Z,27.23
2017-07-20T15:32:19.311Z,27.35
2017-07-20T15:34:43.889Z,26.91
2017-07-20T15:37:10.554Z,27.52
2017-07-20T15:42:14.176Z,28.03
2017-07-20T15:44:38.760Z,28.25
2017-07-20T15:47:03.365Z,28.53
2017-07-20T15:49:27.981Z,28.55
2017-07-20T15:51:44.162Z,28.68
2017-07-20T15:54:08.945Z,28.55
2017-07-20T15:56:33.607Z,28.2
2017-07-20T15:58:58.272Z,28.23
2017-07-20T16:01:22.924Z,27.55
2017-07-20T16:03:47.543Z,27.88
2017-07-20T16:06:12.172Z,27.64
2017-07-20T16:08:28.262Z,27.28
2017-07-20T16:10:44.415Z,27.48
2017-07-20T16:13:01.296Z,27.53
2017-07-20T16:15:25.907Z,27.63
2017-07-20T16:17:50.722Z,27.4
2017-07-20T16:20:15.414Z,27.03
2017-07-20T16:22:23.113Z,26.98
2017-07-20T16:24:47.713Z,27.5
2017-07-20T16:27:12.397Z,27.3
2017-07-20T16:29:37.004Z,27.44
2017-07-20T16:32:01.572Z,27.76
2017-07-20T16:34:26.130Z,27.55
2017-07-20T16:36:50.695Z,27.45
2017-07-20T16:39:15.377Z,27.34
2017-07-20T16:41:40.074Z,27.44
2017-07-20T16:44:04.675Z,27.45
2017-07-20T16:46:29.261Z,27.48
2017-07-20T16:48:53.871Z,27.63
2017-07-20T16:51:18.547Z,27.71
2017-07-20T16:53:34.668Z,27.48
2017-07-20T16:55:59.338Z,27.5
2017-07-20T16:58:24.035Z,27.5
2017-07-20T17:00:48.629Z,27.79
2017-07-20T17:03:13.230Z,28.01
2017-07-20T17:05:37.927Z,28.38
2017-07-20T17:08:02.623Z,28.15
2017-07-20T17:10:27.213Z,27.95
2017-07-20T17:12:51.769Z,27.86
2017-07-20T17:15:07.903Z,27.85
2017-07-20T17:17:32.496Z,28.01
2017-07-20T17:19:57.089Z,27.93
2017-07-20T17:22:21.671Z,28.03
2017-07-20T17:24:46.241Z,28.18
2017-07-20T17:27:10.872Z,27.86
2017-07-20T17:29:35.575Z,28.04
2017-07-20T17:32:00.186Z,28.13
2017-07-20T17:34:24.809Z,28.52
2017-07-20T17:36:49.421Z,28.45
2017-07-20T17:39:05.560Z,27.95
2017-07-20T17:41:30.262Z,28.09
2017-07-20T17:43:54.946Z,27.88
2017-07-20T17:46:19.534Z,27.79
2017-07-20T17:48:44.079Z,27.63
2017-07-20T17:51:00.218Z,27.34
2017-07-20T17:53:24.768Z,27.01
2017-07-20T17:55:34.835Z,27.11
2017-07-20T17:57:50.960Z,27.05
2017-07-20T18:00:15.498Z,27.45
2017-07-20T18:02:40.013Z,27.67
2017-07-20T18:05:04.524Z,27.88
2017-07-20T18:07:20.640Z,28.1
2017-07-20T18:09:45.185Z,28.18
2017-07-20T18:12:01.326Z,27.47
2017-07-20T18:14:25.919Z,27.35
2017-07-20T18:16:50.431Z,27.61
2017-07-20T18:19:00.481Z,27.78
2017-07-20T18:21:25.059Z,27.78
2017-07-20T18:23:49.599Z,28.06
2017-07-20T18:26:14.145Z,27.82
2017-07-20T18:28:38.640Z,27.05
2017-07-20T18:30:40.137Z,26.96
2017-07-20T18:33:04.682Z,27.05
2017-07-20T18:35:29.166Z,27.05
2017-07-20T18:37:45.263Z,27.25
2017-07-20T18:40:09.807Z,27.43
2017-07-20T18:42:17.414Z,27.72
2017-07-20T18:44:33.505Z,27.35
2017-07-20T18:46:58.046Z,27.22
2017-07-20T18:49:14.242Z,27.13
2017-07-20T18:51:38.840Z,27.35
2017-07-20T18:54:03.460Z,27.25
2017-07-20T18:56:27.920Z,26.96
2017-07-20T18:58:52.406Z,27
2017-07-20T19:01:16.910Z,27.07
2017-07-20T19:03:32.979Z,27.18
2017-07-20T19:05:57.495Z,27.1
2017-07-20T19:08:08.029Z,27.03
2017-07-20T19:10:32.577Z,26.96
2017-07-20T19:12:57.093Z,26.93
2017-07-20T19:15:21.623Z,27.1
2017-07-20T19:17:46.121Z,27.01
2017-07-20T19:20:02.163Z,26.98
2017-07-20T19:22:26.666Z,26.98
2017-07-20T19:24:51.160Z,27.19
2017-07-20T19:27:15.608Z,27.18
2017-07-20T19:29:40.093Z,26.98
2017-07-20T19:32:04.571Z,26.44
2017-07-20T19:34:29.078Z,26.79
2017-07-20T19:36:45.155Z,26.88
2017-07-20T19:39:09.615Z,26.71
2017-07-20T19:41:25.748Z,26.52
2017-07-20T19:43:41.784Z,26.59
2017-07-20T19:45:57.767Z,26.55
2017-07-20T19:48:22.180Z,26.55
2017-07-20T19:50:38.180Z,26.52
2017-07-20T19:53:02.641Z,26.64
2017-07-20T19:55:27.073Z,26.76
2017-07-20T19:57:51.545Z,26.73
2017-07-20T20:00:07.547Z,26.83
2017-07-20T20:02:23.873Z,26.88
2017-07-20T20:04:48.086Z,26.64
2017-07-20T20:07:12.589Z,26.52
2017-07-20T20:09:36.991Z,26.52
2017-07-20T20:12:01.444Z,26.39
2017-07-20T20:14:25.876Z,26.42
2017-07-20T20:16:50.385Z,26.6
2017-07-20T20:19:14.694Z,26.53
2017-07-20T20:21:30.696Z,26.55
2017-07-20T20:23:55.282Z,26.46
2017-07-20T20:26:19.556Z,26.52
2017-07-20T20:28:44.037Z,26.45
2017-07-20T20:30:20.350Z,26.44
2017-07-20T20:32:44.879Z,26.45
2017-07-20T20:35:09.366Z,26.55
2017-07-20T20:37:33.745Z,26.36
2017-07-20T20:39:58.159Z,26.36
2017-07-20T20:42:22.587Z,26.3
2017-07-20T20:44:46.986Z,25.98
2017-07-20T20:47:11.355Z,26.13
2017-07-20T20:49:35.851Z,26.23
2017-07-20T20:52:00.293Z,26.13
2017-07-20T20:54:24.737Z,26.13
2017-07-20T20:56:26.225Z,26.3
2017-07-20T20:58:50.653Z,26.34
2017-07-20T21:01:15.096Z,26.34
2017-07-20T21:03:39.521Z,26.39
2017-07-20T21:06:03.954Z,26.46
2017-07-20T21:08:05.470Z,26.33
2017-07-20T21:10:29.909Z,26.13
2017-07-20T21:12:45.893Z,26.27
2017-07-20T21:15:10.767Z,26.3
2017-07-20T21:17:35.127Z,26.06
2017-07-20T21:19:59.523Z,26.04
2017-07-20T21:22:24.062Z,26.06
2017-07-20T21:24:48.517Z,25.85
2017-07-20T21:27:12.954Z,25.68
2017-07-20T21:29:37.420Z,25.71
2017-07-20T21:32:01.803Z,25.81
2017-07-20T21:34:26.172Z,25.89
2017-07-20T21:36:42.044Z,25.88
2017-07-20T21:39:06.488Z,25.8
2017-07-20T21:41:30.918Z,25.91
2017-07-20T21:43:55.339Z,25.8
2017-07-20T21:46:19.756Z,25.78
2017-07-20T21:48:44.180Z,25.71
2017-07-20T21:51:08.576Z,25.76
2017-07-20T21:52:58.566Z,25.74
2017-07-20T21:55:22.972Z,25.67
2017-07-20T21:57:38.889Z,25.78
2017-07-20T22:00:03.219Z,25.7
2017-07-20T22:02:27.595Z,25.59
2017-07-20T22:04:51.992Z,25.52
2017-07-20T22:06:27.822Z,25.54
2017-07-20T22:08:43.909Z,25.43
2017-07-20T22:11:08.288Z,25.3
2017-07-20T22:13:24.172Z,25.41
2017-07-20T22:15:48.576Z,25.26
2017-07-20T22:18:12.966Z,25.19
2017-07-20T22:20:20.374Z,25.3
2017-07-20T22:22:44.712Z,25.34
2017-07-20T22:25:09.133Z,25.26
2017-07-20T22:27:24.971Z,25.25
2017-07-20T22:29:49.415Z,25.3
2017-07-20T22:32:13.733Z,25.31
2017-07-20T22:34:15.166Z,25.34
2017-07-20T22:36:39.496Z,25.3
2017-07-20T22:39:03.830Z,25.29
2017-07-20T22:41:28.150Z,25.21
2017-07-20T22:43:52.491Z,25.29
2017-07-20T22:45:59.898Z,25.29
2017-07-20T22:48:24.182Z,25.3
2017-07-20T22:50:48.569Z,25.37
2017-07-20T22:52:47.661Z,25.34
2017-07-20T22:55:12.054Z,25.3
2017-07-20T22:57:27.944Z,25.34
2017-07-20T22:59:52.335Z,25.3
2017-07-20T23:02:08.166Z,25.29
2017-07-20T23:04:32.509Z,25.19
2017-07-20T23:06:33.962Z,25.25
2017-07-20T23:08:58.348Z,25.37
2017-07-20T23:11:22.690Z,25.29
2017-07-20T23:13:47.128Z,25.29
2017-07-20T23:16:11.518Z,25.29
2017-07-20T23:18:35.905Z,25.12
2017-07-20T23:20:51.797Z,25.15
2017-07-20T23:23:07.656Z,25.26
2017-07-20T23:25:32.075Z,25.25
2017-07-20T23:27:56.463Z,25.29
2017-07-20T23:30:20.855Z,25.16
2017-07-20T23:32:45.213Z,25.21
2017-07-20T23:35:09.634Z,25.25
2017-07-20T23:37:34.025Z,25.11
2017-07-20T23:39:49.917Z,25.22
2017-07-20T23:42:14.299Z,25.33
2017-07-20T23:44:38.689Z,25.19
2017-07-20T23:46:54.576Z,25.21
2017-07-20T23:49:10.397Z,25.19
2017-07-20T23:51:34.726Z,25.06
2017-07-20T23:53:59.064Z,25.18
2017-07-20T23:56:23.401Z,25.14
2017-07-20T23:58:47.747Z,25.03
